Time;durP1;ratioP1;P1;durP2;ratioP2;P2;SDS_P1;SDS_P2;PMS_P1;PMS_P2;Temp;Humidity;BMP_temperature;BMP_pressure;BME280_temperature;BME280_humidity;BME280_pressure;Samples;Min_cycle;Max_cycle;Signal;HPM_P1;HPM_P2
2021/10/31 00:02:27;;;;;;;9.23;7.18;;;7.50;99.90;;;;;;4713508;30;20064;-82
2021/10/31 00:04:55;;;;;;;9.77;8.48;;;7.50;99.90;;;;;;4722446;30;20049;-81
2021/10/31 00:07:22;;;;;;;8.88;6.85;;;7.30;99.90;;;;;;4730643;30;20040;-81
2021/10/31 00:09:50;;;;;;;13.25;7.63;;;7.20;99.90;;;;;;4731269;30;20056;-80
2021/10/31 00:12:18;;;;;;;9.35;7.13;;;7.20;99.90;;;;;;4715769;30;20064;-81
2021/10/31 00:14:46;;;;;;;10.10;7.70;;;7.10;99.90;;;;;;4716314;30;20390;-81
2021/10/31 00:17:13;;;;;;;10.73;7.32;;;7.20;99.90;;;;;;4695450;30;20046;-81
2021/10/31 00:19:41;;;;;;;10.07;6.43;;;7.20;99.90;;;;;;4697250;30;20409;-81
2021/10/31 00:22:09;;;;;;;16.50;7.75;;;7.20;99.90;;;;;;4696191;30;20501;-81
2021/10/31 00:24:37;;;;;;;10.43;8.05;;;7.20;99.90;;;;;;4697109;30;20061;-81
2021/10/31 00:27:05;;;;;;;8.48;6.32;;;7.20;99.90;;;;;;4696547;30;20050;-81
2021/10/31 00:29:32;;;;;;;11.18;7.80;;;7.20;99.90;;;;;;4696164;30;20050;-81
2021/10/31 00:32:00;;;;;;;11.38;7.40;;;7.10;99.90;;;;;;4693751;30;20065;-81
2021/10/31 00:34:28;;;;;;;11.65;7.80;;;7.20;99.90;;;;;;4696582;30;20065;-81
2021/10/31 00:36:55;;;;;;;9.75;8.52;;;7.10;99.90;;;;;;4695188;30;20061;-82
2021/10/31 00:39:23;;;;;;;9.32;6.30;;;7.10;99.90;;;;;;4710137;30;20068;-81
2021/10/31 00:41:51;;;;;;;7.57;4.72;;;7.40;99.90;;;;;;4694444;30;20062;-81
2021/10/31 00:44:19;;;;;;;6.63;5.07;;;7.50;99.90;;;;;;4696490;30;20065;-82
2021/10/31 00:46:46;;;;;;;9.52;6.68;;;7.60;99.90;;;;;;4693374;30;20061;-82
2021/10/31 00:49:14;;;;;;;9.07;5.63;;;7.70;99.90;;;;;;4711616;30;20064;-81
2021/10/31 00:51:42;;;;;;;7.82;6.32;;;7.70;99.90;;;;;;4713791;30;20056;-81
2021/10/31 00:54:10;;;;;;;11.88;6.35;;;7.70;99.90;;;;;;4712722;30;20052;-82
2021/10/31 00:56:38;;;;;;;8.38;7.38;;;7.80;99.90;;;;;;4714492;30;20048;-81
2021/10/31 00:59:05;;;;;;;8.05;5.75;;;7.80;99.90;;;;;;4713363;30;20041;-82
2021/10/31 01:01:34;;;;;;;7.07;4.55;;;7.70;99.90;;;;;;4710005;30;20511;-81
2021/10/31 01:04:04;;;;;;;8.38;6.05;;;7.50;99.90;;;;;;4714617;30;20061;-81
2021/10/31 01:07:09;;;;;;;5.85;4.90;;;7.50;99.90;;;;;;4714918;30;20056;-89
2021/10/31 01:10:21;;;;;;;7.30;6.50;;;7.50;99.90;;;;;;4714108;30;20072;-89
2021/10/31 01:13:04;;;;;;;8.25;5.80;;;7.50;99.90;;;;;;4704541;30;20060;-90
2021/10/31 01:15:51;;;;;;;6.43;4.45;;;7.50;99.90;;;;;;4711917;30;20057;-90
2021/10/31 01:18:59;;;;;;;8.90;6.30;;;7.40;99.90;;;;;;4728539;30;20048;-90
2021/10/31 01:21:54;;;;;;;5.10;4.55;;;7.40;99.90;;;;;;4713455;30;20404;-89
2021/10/31 01:24:47;;;;;;;6.97;5.15;;;7.40;99.90;;;;;;4713492;30;20060;-89
2021/10/31 01:27:42;;;;;;;11.63;6.70;;;7.40;99.90;;;;;;4664143;30;20091;-89
2021/10/31 01:30:35;;;;;;;5.90;4.70;;;7.20;99.90;;;;;;4664028;30;20054;-90
2021/10/31 01:33:30;;;;;;;4.63;4.22;;;6.90;99.90;;;;;;4678610;30;20520;-90
2021/10/31 01:36:17;;;;;;;6.15;4.65;;;6.70;99.90;;;;;;4679622;30;20075;-89
2021/10/31 01:38:53;;;;;;;6.28;5.28;;;6.80;99.90;;;;;;4678760;30;20057;-90
2021/10/31 01:41:46;;;;;;;7.60;4.60;;;6.90;99.90;;;;;;4692352;30;20064;-89
2021/10/31 01:44:26;;;;;;;4.55;3.83;;;7.00;99.90;;;;;;4665367;30;20061;-89
2021/10/31 01:47:27;;;;;;;4.88;4.40;;;6.90;99.90;;;;;;4677180;30;20405;-89
2021/10/31 01:50:05;;;;;;;5.53;4.28;;;6.60;99.90;;;;;;4678704;30;20057;-89
2021/10/31 01:52:59;;;;;;;4.88;4.22;;;6.60;99.90;;;;;;4679525;30;20066;-88
2021/10/31 01:55:37;;;;;;;5.85;4.05;;;6.50;99.90;;;;;;4678354;30;20066;-90
2021/10/31 01:58:09;;;;;;;6.07;5.53;;;6.50;99.90;;;;;;4665197;30;20771;-89
2021/10/31 02:00:38;;;;;;;6.93;4.75;;;6.60;99.90;;;;;;4689997;30;20509;-90
2021/10/31 02:03:09;;;;;;;6.13;4.45;;;6.80;99.90;;;;;;4664475;30;20058;-90
2021/10/31 02:05:40;;;;;;;6.97;4.68;;;7.00;99.90;;;;;;4696764;30;20053;-91
2021/10/31 02:08:10;;;;;;;5.88;4.70;;;7.00;99.90;;;;;;4713818;30;20060;-90
2021/10/31 02:10:41;;;;;;;7.88;7.07;;;7.00;99.90;;;;;;4712524;30;20056;-91
2021/10/31 02:13:14;;;;;;;6.47;5.22;;;6.90;99.90;;;;;;4713214;30;20068;-90
2021/10/31 02:15:46;;;;;;;9.10;5.95;;;7.10;99.90;;;;;;4696974;30;20068;-80
2021/10/31 02:18:17;;;;;;;16.08;10.38;;;7.20;99.90;;;;;;4716210;30;20211;-80
2021/10/31 02:20:51;;;;;;;7.97;5.97;;;7.20;99.90;;;;;;4715243;30;20064;-81
2021/10/31 02:23:19;;;;;;;6.83;4.80;;;7.20;99.90;;;;;;4715121;30;20073;-81
2021/10/31 02:25:47;;;;;;;7.75;6.25;;;7.00;99.90;;;;;;4714175;30;20062;-81
2021/10/31 02:28:16;;;;;;;8.98;5.93;;;7.00;99.90;;;;;;4716319;30;20061;-80
2021/10/31 02:30:44;;;;;;;6.90;5.43;;;7.00;99.90;;;;;;4712301;30;20057;-81
2021/10/31 02:33:12;;;;;;;6.50;5.78;;;6.90;99.90;;;;;;4714423;30;20079;-80
2021/10/31 02:35:40;;;;;;;7.65;5.28;;;6.50;99.90;;;;;;4716121;30;20059;-81
2021/10/31 02:38:08;;;;;;;5.55;5.00;;;6.10;99.90;;;;;;4716019;30;20053;-80
2021/10/31 02:40:36;;;;;;;10.57;5.22;;;5.90;99.90;;;;;;4714028;30;20500;-81
2021/10/31 02:43:07;;;;;;;5.45;4.97;;;5.70;99.90;;;;;;4715843;30;20049;-80
2021/10/31 02:45:35;;;;;;;5.20;3.78;;;5.70;99.90;;;;;;4712433;30;20053;-81
2021/10/31 02:48:09;;;;;;;6.72;4.72;;;5.60;99.90;;;;;;4714376;30;20061;-80
2021/10/31 02:50:39;;;;;;;7.70;5.35;;;5.60;99.90;;;;;;4713789;30;20062;-81
2021/10/31 02:53:08;;;;;;;6.15;5.05;;;5.70;99.90;;;;;;4714036;30;20390;-81
2021/10/31 02:56:14;;;;;;;6.20;5.38;;;5.80;99.90;;;;;;4699794;30;20065;-81
2021/10/31 02:58:54;;;;;;;6.13;5.13;;;5.70;99.90;;;;;;4714086;30;20053;-81
2021/10/31 03:01:24;;;;;;;5.97;5.45;;;5.70;99.90;;;;;;4683164;30;20484;-81
2021/10/31 03:03:54;;;;;;;5.55;4.63;;;5.80;99.90;;;;;;4716463;30;20061;-81
2021/10/31 03:06:23;;;;;;;5.78;5.18;;;5.60;99.90;;;;;;4732505;30;20056;-81
2021/10/31 03:08:51;;;;;;;5.82;5.10;;;5.60;99.90;;;;;;4731353;30;20060;-80
2021/10/31 03:11:19;;;;;;;7.18;6.57;;;5.60;99.90;;;;;;4732166;30;20057;-81
2021/10/31 03:13:47;;;;;;;9.52;5.63;;;5.60;99.90;;;;;;4732427;30;20076;-80
2021/10/31 03:16:15;;;;;;;5.55;4.78;;;5.60;99.90;;;;;;4731189;30;20052;-80
2021/10/31 03:18:43;;;;;;;8.18;5.72;;;5.40;99.90;;;;;;4731416;30;20068;-80
2021/10/31 03:21:11;;;;;;;7.93;5.32;;;5.40;99.90;;;;;;4731832;30;20052;-80
2021/10/31 03:23:38;;;;;;;5.72;5.00;;;5.30;99.90;;;;;;4731484;30;20052;-80
2021/10/31 03:26:06;;;;;;;7.53;6.70;;;5.30;99.90;;;;;;4720233;30;20536;-81
2021/10/31 03:28:34;;;;;;;8.13;4.18;;;5.30;99.90;;;;;;4715496;30;20408;-81
2021/10/31 03:31:02;;;;;;;7.40;5.53;;;5.30;99.90;;;;;;4710855;30;20045;-80
2021/10/31 03:33:30;;;;;;;6.70;6.07;;;5.30;99.90;;;;;;4715125;30;20064;-80
2021/10/31 03:35:58;;;;;;;6.22;4.78;;;5.30;99.90;;;;;;4699373;30;20065;-81
2021/10/31 03:38:26;;;;;;;7.38;5.75;;;5.50;99.90;;;;;;4715286;30;20057;-80
2021/10/31 03:40:53;;;;;;;7.43;6.53;;;5.50;99.90;;;;;;4698461;30;20087;-80
2021/10/31 03:43:21;;;;;;;7.68;4.78;;;5.40;99.90;;;;;;4715061;30;20053;-81
2021/10/31 03:45:51;;;;;;;6.15;5.40;;;5.50;99.90;;;;;;4711485;30;20064;-81
2021/10/31 03:48:19;;;;;;;7.45;5.90;;;5.80;99.90;;;;;;4713472;30;20547;-81
2021/10/31 03:50:46;;;;;;;6.60;5.07;;;5.90;99.90;;;;;;4712394;30;20124;-81
2021/10/31 03:53:14;;;;;;;4.80;4.35;;;5.90;99.90;;;;;;4714361;30;20057;-81
2021/10/31 03:55:42;;;;;;;7.15;4.22;;;5.80;99.90;;;;;;4713197;30;20064;-81
2021/10/31 03:58:10;;;;;;;5.45;4.65;;;5.60;99.90;;;;;;4714385;30;20053;-80
2021/10/31 04:00:38;;;;;;;5.03;4.32;;;5.50;99.90;;;;;;4696540;30;20382;-80
2021/10/31 04:03:06;;;;;;;8.65;6.47;;;5.60;99.90;;;;;;4714251;30;20061;-80
2021/10/31 04:05:33;;;;;;;5.20;4.55;;;5.70;99.90;;;;;;4727203;30;20045;-80
2021/10/31 04:08:01;;;;;;;5.63;4.93;;;5.60;99.90;;;;;;4732260;30;20056;-81
2021/10/31 04:10:29;;;;;;;4.88;4.38;;;5.40;99.90;;;;;;4730731;30;20060;-80
2021/10/31 04:12:57;;;;;;;5.32;4.78;;;5.30;99.90;;;;;;4731673;30;20064;-80
2021/10/31 04:15:26;;;;;;;6.97;5.85;;;5.20;99.90;;;;;;4713676;30;20412;-80
2021/10/31 04:17:54;;;;;;;3.55;3.25;;;5.00;99.90;;;;;;4714385;30;20060;-80
2021/10/31 04:20:34;;;;;;;6.15;3.58;;;4.80;99.90;;;;;;4721439;30;20343;-91
2021/10/31 04:23:27;;;;;;;6.03;3.55;;;4.70;99.90;;;;;;4681391;30;20087;-80
2021/10/31 04:25:55;;;;;;;3.60;3.30;;;4.70;99.90;;;;;;4713610;30;20625;-80
2021/10/31 04:28:25;;;;;;;4.47;4.07;;;4.90;99.90;;;;;;4713190;30;20053;-80
2021/10/31 04:30:53;;;;;;;5.83;5.27;;;5.10;99.90;;;;;;4711667;30;20049;-81
2021/10/31 04:33:21;;;;;;;4.18;3.78;;;5.30;99.90;;;;;;4714040;30;20064;-81
2021/10/31 04:35:49;;;;;;;4.00;3.45;;;5.50;99.90;;;;;;4713316;30;20068;-81
2021/10/31 04:38:20;;;;;;;4.38;3.67;;;5.60;99.90;;;;;;4713470;30;20060;-81
2021/10/31 04:40:48;;;;;;;4.00;3.47;;;5.50;99.90;;;;;;4711922;30;20061;-81
2021/10/31 04:43:16;;;;;;;4.90;3.70;;;5.30;99.90;;;;;;4713414;30;20092;-81
2021/10/31 04:45:44;;;;;;;3.60;3.38;;;5.20;99.90;;;;;;4712138;30;20220;-80
2021/10/31 04:48:13;;;;;;;13.90;3.90;;;5.20;99.90;;;;;;4712815;30;20057;-80
2021/10/31 04:50:41;;;;;;;5.32;4.90;;;5.20;99.90;;;;;;4711890;30;20523;-80
2021/10/31 04:53:09;;;;;;;6.63;4.63;;;5.30;99.90;;;;;;4713755;30;20049;-79
2021/10/31 04:55:38;;;;;;;5.05;4.45;;;5.30;99.90;;;;;;4713815;30;20437;-81
2021/10/31 04:58:07;;;;;;;3.50;3.20;;;5.40;99.90;;;;;;4712371;30;20064;-81
2021/10/31 05:00:35;;;;;;;3.83;3.50;;;5.30;99.90;;;;;;4711593;30;20061;-81
2021/10/31 05:03:03;;;;;;;5.40;4.93;;;5.20;99.90;;;;;;4713702;30;20425;-81
2021/10/31 05:05:32;;;;;;;4.65;4.03;;;5.30;99.90;;;;;;4726067;30;20068;-81
2021/10/31 05:08:01;;;;;;;4.30;3.25;;;5.30;99.90;;;;;;4730307;30;20052;-81
2021/10/31 05:10:29;;;;;;;7.10;4.13;;;5.40;99.90;;;;;;4728860;30;20069;-81
2021/10/31 05:12:56;;;;;;;6.00;5.13;;;5.50;99.90;;;;;;4729620;30;20049;-81
2021/10/31 05:15:24;;;;;;;6.63;4.63;;;5.50;99.90;;;;;;4729580;30;20064;-81
2021/10/31 05:17:53;;;;;;;7.47;4.53;;;5.50;99.90;;;;;;4729676;30;20531;-80
2021/10/31 05:20:21;;;;;;;5.78;4.53;;;5.40;99.90;;;;;;4730908;30;20056;-80
2021/10/31 05:22:49;;;;;;;4.05;3.63;;;5.30;99.90;;;;;;4715305;30;20059;-80
2021/10/31 05:25:17;;;;;;;5.43;4.35;;;5.00;99.90;;;;;;4706002;30;20502;-81
2021/10/31 05:27:45;;;;;;;6.72;4.60;;;4.80;99.90;;;;;;4696709;30;20058;-81
2021/10/31 05:30:13;;;;;;;5.35;4.85;;;4.80;99.90;;;;;;4694148;30;20053;-81
2021/10/31 05:32:42;;;;;;;5.50;4.38;;;4.80;99.90;;;;;;4695122;30;20054;-81
2021/10/31 05:35:11;;;;;;;6.45;4.18;;;4.90;99.90;;;;;;4695856;30;20061;-81
2021/10/31 05:37:47;;;;;;;5.93;4.28;;;4.90;99.90;;;;;;4694717;30;20053;-81
2021/10/31 05:40:16;;;;;;;6.80;5.05;;;4.60;99.90;;;;;;4695770;30;20054;-80
2021/10/31 05:42:44;;;;;;;6.63;4.30;;;4.50;99.90;;;;;;4695902;30;20045;-80
2021/10/31 05:45:11;;;;;;;8.02;5.15;;;4.50;99.90;;;;;;4694515;30;20501;-81
2021/10/31 05:47:42;;;;;;;4.70;4.13;;;4.50;99.90;;;;;;4695593;30;20490;-80
2021/10/31 05:50:12;;;;;;;6.75;5.22;;;4.50;99.90;;;;;;4681982;30;20054;-81
2021/10/31 05:52:41;;;;;;;5.28;4.65;;;4.70;99.90;;;;;;4698263;30;20053;-80
2021/10/31 05:55:10;;;;;;;5.82;4.65;;;4.70;99.90;;;;;;4697532;30;20045;-80
2021/10/31 05:57:38;;;;;;;7.80;6.18;;;4.60;99.90;;;;;;4698934;30;20050;-80
2021/10/31 06:00:08;;;;;;;7.18;6.05;;;4.60;99.90;;;;;;4696981;30;20061;-81
2021/10/31 06:02:43;;;;;;;7.15;5.25;;;4.70;99.90;;;;;;4698911;30;20061;-81
2021/10/31 06:05:12;;;;;;;8.35;7.10;;;4.70;99.90;;;;;;4703939;30;20052;-80
2021/10/31 06:07:41;;;;;;;9.48;7.03;;;4.80;99.90;;;;;;4718314;30;20516;-80
2021/10/31 06:10:10;;;;;;;7.60;6.55;;;4.80;99.90;;;;;;4732868;30;20522;-80
2021/10/31 06:12:44;;;;;;;7.20;6.50;;;4.80;99.90;;;;;;4734107;30;20059;-80
2021/10/31 06:15:22;;;;;;;7.78;6.43;;;4.80;99.90;;;;;;4718356;30;20060;-80
2021/10/31 06:17:50;;;;;;;6.40;5.15;;;4.80;99.90;;;;;;4716308;30;20053;-81
2021/10/31 06:20:18;;;;;;;11.63;7.63;;;4.60;99.90;;;;;;4715789;30;20060;-80
2021/10/31 06:22:46;;;;;;;10.43;5.57;;;4.40;99.90;;;;;;4714968;30;20053;-81
2021/10/31 06:25:14;;;;;;;8.40;5.78;;;4.30;99.90;;;;;;4715833;30;20049;-81
2021/10/31 06:27:42;;;;;;;7.57;6.28;;;4.30;99.90;;;;;;4715167;30;20061;-80
2021/10/31 06:30:10;;;;;;;6.78;6.13;;;4.40;99.90;;;;;;4713266;30;20074;-80
2021/10/31 06:32:39;;;;;;;9.95;7.68;;;4.40;99.90;;;;;;4715765;30;20052;-81
2021/10/31 06:35:07;;;;;;;9.77;6.97;;;4.50;99.90;;;;;;4716077;30;20053;-81
2021/10/31 06:37:35;;;;;;;9.65;7.70;;;4.40;99.90;;;;;;4715876;30;20068;-80
2021/10/31 06:40:04;;;;;;;6.53;5.47;;;4.50;99.90;;;;;;4714560;30;20075;-81
2021/10/31 06:42:31;;;;;;;10.70;7.70;;;4.60;99.90;;;;;;4715994;30;20381;-80
2021/10/31 06:44:59;;;;;;;10.45;7.63;;;4.70;99.90;;;;;;4715555;30;20064;-83
2021/10/31 06:47:27;;;;;;;11.43;8.00;;;4.90;99.90;;;;;;4713227;30;20053;-80
2021/10/31 06:49:55;;;;;;;6.95;6.35;;;5.10;99.90;;;;;;4714062;30;20061;-80
2021/10/31 06:52:23;;;;;;;10.88;8.48;;;5.30;99.90;;;;;;4715926;30;20060;-80
2021/10/31 06:54:51;;;;;;;10.30;7.50;;;5.40;99.90;;;;;;4715287;30;20045;-81
2021/10/31 06:57:19;;;;;;;11.60;9.25;;;5.50;99.90;;;;;;4715140;30;20064;-83
2021/10/31 06:59:46;;;;;;;11.55;7.60;;;5.60;99.90;;;;;;4714871;30;20516;-80
2021/10/31 07:02:14;;;;;;;12.35;8.10;;;5.80;99.90;;;;;;4713601;30;20049;-81
2021/10/31 07:04:42;;;;;;;10.05;7.60;;;5.80;99.90;;;;;;4721142;30;20403;-80
2021/10/31 07:07:10;;;;;;;10.18;7.82;;;5.80;99.90;;;;;;4732287;30;20056;-80
2021/10/31 07:09:38;;;;;;;9.40;8.43;;;5.80;99.90;;;;;;4731448;30;20056;-81
2021/10/31 07:12:06;;;;;;;9.48;8.18;;;6.00;99.90;;;;;;4732450;30;20067;-81
2021/10/31 07:14:34;;;;;;;12.50;9.80;;;6.10;99.90;;;;;;4732027;30;20056;-81
2021/10/31 07:17:02;;;;;;;12.18;8.85;;;6.20;99.90;;;;;;4729934;30;20063;-81
2021/10/31 07:19:30;;;;;;;11.30;8.57;;;6.30;99.90;;;;;;4732884;30;20056;-80
2021/10/31 07:21:58;;;;;;;10.20;8.50;;;6.40;99.90;;;;;;4732098;30;20045;-81
2021/10/31 07:24:25;;;;;;;20.33;11.38;;;6.50;99.90;;;;;;4731696;30;20068;-81
2021/10/31 07:26:53;;;;;;;13.00;9.98;;;6.50;99.90;;;;;;4714359;30;20057;-81
2021/10/31 07:29:21;;;;;;;9.05;7.10;;;6.70;99.90;;;;;;4713072;30;20052;-81
2021/10/31 07:31:49;;;;;;;16.55;10.95;;;7.00;99.90;;;;;;4713379;30;20129;-80
2021/10/31 07:34:18;;;;;;;10.38;9.27;;;7.30;99.90;;;;;;4713864;30;20070;-81
2021/10/31 07:36:46;;;;;;;10.48;9.13;;;7.50;99.90;;;;;;4714773;30;20065;-81
2021/10/31 07:39:14;;;;;;;9.38;6.80;;;7.50;99.90;;;;;;4715284;30;20057;-82
2021/10/31 07:41:41;;;;;;;8.65;7.00;;;7.50;99.90;;;;;;4713666;30;20053;-81
2021/10/31 07:44:09;;;;;;;10.18;7.20;;;7.50;99.90;;;;;;4714770;30;20064;-81
2021/10/31 07:46:37;;;;;;;11.70;6.55;;;7.60;99.90;;;;;;4712130;30;20065;-81
2021/10/31 07:49:05;;;;;;;7.43;5.65;;;7.80;99.90;;;;;;4713459;30;20053;-81
2021/10/31 07:51:33;;;;;;;8.52;5.68;;;7.90;99.90;;;;;;4714806;30;20056;-81
2021/10/31 07:54:01;;;;;;;6.05;4.90;;;8.20;99.90;;;;;;4714571;30;20064;-81
2021/10/31 07:56:33;;;;;;;10.32;6.57;;;8.40;99.90;;;;;;4713260;30;20394;-82
2021/10/31 07:59:01;;;;;;;11.15;5.95;;;8.60;99.90;;;;;;4712819;30;20045;-81
2021/10/31 08:01:29;;;;;;;10.80;7.28;;;8.60;99.90;;;;;;4710844;30;20041;-81
2021/10/31 08:03:57;;;;;;;8.02;6.22;;;8.70;99.90;;;;;;4714714;30;20053;-81
2021/10/31 08:06:24;;;;;;;9.48;7.50;;;8.70;99.90;;;;;;4730581;30;20063;-81
2021/10/31 08:08:52;;;;;;;6.68;5.85;;;8.80;99.90;;;;;;4731620;30;20056;-81
2021/10/31 08:11:21;;;;;;;8.02;6.25;;;9.00;99.90;;;;;;4730615;30;20369;-81
2021/10/31 08:13:49;;;;;;;4.80;4.30;;;9.10;99.90;;;;;;4727793;30;20060;-81
2021/10/31 08:16:19;;;;;;;7.80;5.95;;;9.20;99.90;;;;;;4711512;30;20053;-81
2021/10/31 08:18:46;;;;;;;4.75;4.10;;;9.30;99.90;;;;;;4713084;30;20076;-81
2021/10/31 08:21:14;;;;;;;5.45;4.32;;;9.40;99.90;;;;;;4697683;30;20041;-82
2021/10/31 08:23:42;;;;;;;6.10;3.97;;;9.60;99.90;;;;;;4698963;30;20527;-81
2021/10/31 08:26:10;;;;;;;5.80;4.20;;;9.80;99.90;;;;;;4712574;30;20045;-81
2021/10/31 08:28:40;;;;;;;6.60;4.15;;;10.00;99.90;;;;;;4713387;30;20216;-81
2021/10/31 08:31:08;;;;;;;6.70;3.65;;;10.00;99.90;;;;;;4711646;30;20049;-81
2021/10/31 08:33:43;;;;;;;4.53;3.40;;;10.10;99.90;;;;;;4712598;30;20048;-81
2021/10/31 08:36:12;;;;;;;5.20;4.60;;;10.30;99.90;;;;;;4714328;30;20400;-81
2021/10/31 08:38:40;;;;;;;3.78;3.47;;;10.50;99.90;;;;;;4712747;30;20325;-81
2021/10/31 08:41:08;;;;;;;4.78;3.88;;;10.90;99.90;;;;;;4711695;30;20052;-81
2021/10/31 08:43:35;;;;;;;4.65;3.40;;;10.90;99.90;;;;;;4714394;30;20057;-81
2021/10/31 08:46:04;;;;;;;6.43;3.58;;;11.00;99.90;;;;;;4711911;30;20053;-81
2021/10/31 08:48:34;;;;;;;4.35;3.78;;;11.10;99.90;;;;;;4713968;30;20068;-81
2021/10/31 08:51:02;;;;;;;6.55;4.30;;;11.20;99.90;;;;;;4711936;30;20049;-81
2021/10/31 08:53:30;;;;;;;6.70;4.50;;;11.30;99.90;;;;;;4697797;30;20424;-82
2021/10/31 08:55:59;;;;;;;7.07;3.92;;;11.50;99.90;;;;;;4713785;30;20514;-82
2021/10/31 08:58:27;;;;;;;5.80;4.88;;;11.50;99.90;;;;;;4712527;30;20056;-82
2021/10/31 09:00:55;;;;;;;4.70;4.30;;;11.60;99.90;;;;;;4710902;30;20057;-82
2021/10/31 09:03:23;;;;;;;4.05;3.65;;;11.60;99.90;;;;;;4712694;30;20053;-77
2021/10/31 09:05:51;;;;;;;6.45;3.95;;;11.70;99.90;;;;;;4728368;30;20052;-82
2021/10/31 09:08:19;;;;;;;3.47;3.15;;;11.90;99.90;;;;;;4731466;30;20060;-82
2021/10/31 09:10:47;;;;;;;4.72;4.32;;;12.00;99.90;;;;;;4730138;30;20055;-82
2021/10/31 09:13:14;;;;;;;3.88;3.42;;;12.10;99.90;;;;;;4729580;30;20048;-82
2021/10/31 09:15:42;;;;;;;5.63;4.65;;;12.10;99.90;;;;;;4729403;30;20056;-82
2021/10/31 09:18:10;;;;;;;3.80;3.50;;;12.20;99.90;;;;;;4731222;30;20052;-82
2021/10/31 09:20:39;;;;;;;3.97;3.40;;;12.30;99.90;;;;;;4729568;30;20068;-82
2021/10/31 09:23:08;;;;;;;4.47;3.40;;;12.50;99.90;;;;;;4730945;30;20044;-83
2021/10/31 09:25:36;;;;;;;3.60;3.05;;;12.70;99.90;;;;;;4726091;30;20071;-82
2021/10/31 09:28:06;;;;;;;4.93;3.90;;;12.80;99.90;;;;;;4701960;30;20475;-82
2021/10/31 09:30:38;;;;;;;3.65;3.13;;;12.80;99.90;;;;;;4712969;30;20061;-86
2021/10/31 09:33:10;;;;;;;6.95;3.85;;;12.90;99.90;;;;;;4716809;30;20067;-84
2021/10/31 09:35:46;;;;;;;6.28;4.65;;;13.00;99.90;;;;;;4715914;30;20049;-84
2021/10/31 09:38:19;;;;;;;6.90;4.15;;;13.10;99.90;;;;;;4701047;30;20056;-84
2021/10/31 09:40:47;;;;;;;7.13;4.60;;;13.10;99.90;;;;;;4699813;30;20061;-83
2021/10/31 09:43:16;;;;;;;4.32;3.92;;;13.20;99.90;;;;;;4700943;30;20053;-84
2021/10/31 09:45:44;;;;;;;5.32;4.18;;;13.20;99.90;;;;;;4713204;30;20041;-84
2021/10/31 09:48:13;;;;;;;5.28;3.67;;;13.40;99.90;;;;;;4701251;30;20056;-84
2021/10/31 09:50:44;;;;;;;6.35;4.68;;;13.50;99.90;;;;;;4715103;30;20072;-84
2021/10/31 09:53:18;;;;;;;7.70;4.32;;;13.50;99.90;;;;;;4716306;30;20056;-85
2021/10/31 09:55:47;;;;;;;4.50;3.70;;;13.70;99.90;;;;;;4715154;30;20060;-85
2021/10/31 09:58:37;;;;;;;5.45;4.35;;;13.80;99.90;;;;;;4714675;30;20060;-84
2021/10/31 10:01:26;;;;;;;4.13;3.22;;;13.90;99.90;;;;;;4713674;30;20515;-84
2021/10/31 10:03:56;;;;;;;5.63;4.22;;;14.10;99.90;;;;;;4701715;30;20053;-84
2021/10/31 10:06:25;;;;;;;4.95;4.20;;;14.20;99.90;;;;;;4732534;30;20056;-84
2021/10/31 10:09:05;;;;;;;5.57;4.18;;;14.30;99.90;;;;;;4733711;30;20056;-84
2021/10/31 10:11:37;;;;;;;5.63;4.40;;;14.40;99.90;;;;;;4733019;30;20075;-83
2021/10/31 10:14:24;;;;;;;3.50;3.20;;;14.50;99.90;;;;;;4727739;30;20057;-83
2021/10/31 10:16:54;;;;;;;5.40;3.63;;;14.60;99.90;;;;;;4713394;30;20056;-84
2021/10/31 10:19:26;;;;;;;11.07;3.83;;;14.70;99.90;;;;;;4716752;30;20055;-83
2021/10/31 10:22:07;;;;;;;4.85;4.13;;;14.80;99.90;;;;;;4714368;30;20045;-85
2021/10/31 10:24:46;;;;;;;3.97;3.60;;;15.00;99.90;;;;;;4714991;30;20056;-83
2021/10/31 10:27:14;;;;;;;5.90;3.95;;;15.10;99.90;;;;;;4714131;30;20499;-84
2021/10/31 10:29:43;;;;;;;3.15;2.85;;;15.30;99.90;;;;;;4699384;30;20443;-83
2021/10/31 10:32:16;;;;;;;3.83;3.50;;;15.40;99.90;;;;;;4714262;30;20065;-85
2021/10/31 10:34:50;;;;;;;5.60;4.97;;;15.40;99.90;;;;;;4713633;30;20056;-83
2021/10/31 10:37:23;;;;;;;5.25;3.58;;;15.50;99.90;;;;;;4714184;30;20060;-83
2021/10/31 10:39:53;;;;;;;5.40;4.57;;;15.40;99.90;;;;;;4713979;30;20065;-84
2021/10/31 10:42:23;;;;;;;6.25;4.18;;;15.50;99.90;;;;;;4715501;30;20057;-84
2021/10/31 10:44:56;;;;;;;6.22;4.68;;;15.50;99.90;;;;;;4684803;30;20060;-84
2021/10/31 10:47:24;;;;;;;5.90;4.43;;;15.60;99.90;;;;;;4714538;30;20415;-84
2021/10/31 10:49:54;;;;;;;6.72;5.93;;;15.60;99.90;;;;;;4715023;30;20624;-85
2021/10/31 10:52:24;;;;;;;6.28;4.22;;;15.60;99.90;;;;;;4715772;30;20053;-84
2021/10/31 10:54:56;;;;;;;5.50;5.00;;;15.50;99.90;;;;;;4715150;30;20065;-84
2021/10/31 10:57:26;;;;;;;8.63;5.70;;;15.60;99.90;;;;;;4713571;30;20045;-84
2021/10/31 10:59:57;;;;;;;6.18;4.15;;;15.60;99.90;;;;;;4714881;30;20613;-84
2021/10/31 11:02:27;;;;;;;4.63;3.97;;;15.60;99.90;;;;;;4712729;30;20057;-85
2021/10/31 11:04:59;;;;;;;5.18;4.10;;;15.70;99.90;;;;;;4723273;30;20071;-86
2021/10/31 11:07:32;;;;;;;8.65;3.78;;;15.70;99.90;;;;;;4733315;30;20480;-85
2021/10/31 11:10:05;;;;;;;5.72;3.53;;;15.80;99.90;;;;;;4731433;30;20059;-86
2021/10/31 11:12:35;;;;;;;4.05;3.30;;;15.80;99.90;;;;;;4718683;30;20091;-84
2021/10/31 11:15:24;;;;;;;5.95;3.83;;;15.80;99.90;;;;;;4698173;30;20057;-85
2021/10/31 11:17:54;;;;;;;5.57;4.78;;;15.80;99.90;;;;;;4713832;30;20512;-85
2021/10/31 11:20:31;;;;;;;11.55;6.78;;;15.80;99.90;;;;;;4714828;30;20437;-85
2021/10/31 11:23:03;;;;;;;4.45;3.63;;;15.90;99.90;;;;;;4703029;30;20056;-87
2021/10/31 11:25:34;;;;;;;3.35;3.05;;;15.90;99.90;;;;;;4709202;30;20057;-84
2021/10/31 11:28:08;;;;;;;3.10;2.65;;;15.80;99.90;;;;;;4698036;30;20068;-85
2021/10/31 11:30:36;;;;;;;4.28;3.13;;;15.80;99.90;;;;;;4695325;30;20076;-84
2021/10/31 11:33:06;;;;;;;5.88;3.45;;;15.80;99.20;;;;;;4697419;30;20049;-85
2021/10/31 11:35:34;;;;;;;6.88;4.57;;;15.80;99.70;;;;;;4696865;30;20484;-85
2021/10/31 11:38:14;;;;;;;4.55;2.90;;;15.70;99.90;;;;;;4710343;30;20073;-84
2021/10/31 11:40:50;;;;;;;5.60;4.10;;;15.80;99.50;;;;;;4695803;30;20061;-83
2021/10/31 11:43:19;;;;;;;8.40;4.22;;;15.90;99.90;;;;;;4709937;30;20057;-85
2021/10/31 11:45:49;;;;;;;7.95;4.47;;;16.00;99.90;;;;;;4693785;30;20057;-87
2021/10/31 11:48:35;;;;;;;6.80;4.55;;;16.10;99.70;;;;;;4712861;30;20053;-85
2021/10/31 11:51:27;;;;;;;4.60;4.05;;;16.20;99.90;;;;;;4714845;30;20060;-88
2021/10/31 11:55:07;;;;;;;;;;;;;;;;;;;;;
2021/10/31 11:58:57;;;;;;;;;;;;;;;;;;;;;
2021/10/31 12:01:58;;;;;;;6.38;5.13;;;16.10;97.60;;;;;;4704278;30;20057;-88
2021/10/31 12:05:51;;;;;;;6.65;5.75;;;16.20;97.90;;;;;;4711536;30;20060;-87
2021/10/31 12:09:07;;;;;;;7.38;5.38;;;16.20;98.40;;;;;;4682372;30;20528;-88
2021/10/31 12:16:13;;;;;;;;;;;;;;;;;;;;;
2021/10/31 12:19:37;;;;;;;5.38;4.40;;;16.20;98.60;;;;;;4685320;30;20053;-84
2021/10/31 12:22:29;;;;;;;;;;;;;;;;;;;;;
2021/10/31 12:25:53;;;;;;;9.73;6.45;;;16.20;98.70;;;;;;4685973;30;20412;-87
2021/10/31 12:29:07;;;;;;;6.85;5.32;;;16.20;99.20;;;;;;4665441;30;20076;-85
2021/10/31 12:31:50;;;;;;;11.35;7.22;;;16.20;99.20;;;;;;4678427;30;20512;-87
2021/10/31 12:34:35;;;;;;;;;;;16.30;99.70;;;;;;4694057;30;20054;-88
2021/10/31 12:37:36;;;;;;;9.40;5.97;;;16.30;99.30;;;;;;4670369;30;19938;-86
2021/10/31 12:41:47;;;;;;;13.85;8.35;;;16.40;99.50;;;;;;4678615;30;20065;-88
2021/10/31 12:44:33;;;;;;;8.45;6.80;;;16.40;99.90;;;;;;4680861;30;20069;-87
2021/10/31 12:47:55;;;;;;;8.32;6.70;;;16.40;99.90;;;;;;4669042;30;20068;-85
2021/10/31 12:50:38;;;;;;;11.73;7.68;;;16.30;99.90;;;;;;4695472;30;20053;-87
2021/10/31 12:53:25;;;;;;;7.75;4.60;;;16.30;99.40;;;;;;4703892;30;20045;-88
2021/10/31 12:56:17;;;;;;;13.27;6.10;;;16.20;99.80;;;;;;4695815;30;20057;-87
2021/10/31 12:59:25;;;;;;;9.02;6.43;;;16.20;99.90;;;;;;4676650;30;20049;-86
2021/10/31 13:02:46;;;;;;;10.75;5.65;;;16.20;99.60;;;;;;4695888;30;20057;-87
2021/10/31 13:05:35;;;;;;;8.60;5.70;;;16.00;99.50;;;;;;4693757;30;20486;-87
2021/10/31 13:08:45;;;;;;;6.78;5.82;;;16.00;99.50;;;;;;4729989;30;20053;-87
2021/10/31 13:12:07;;;;;;;9.43;5.50;;;16.00;99.90;;;;;;4713591;30;20053;-87
2021/10/31 13:15:32;;;;;;;5.30;4.13;;;16.00;99.90;;;;;;4704716;30;20060;-87
2021/10/31 13:18:36;;;;;;;7.32;5.07;;;16.10;99.90;;;;;;4722945;30;20068;-87
2021/10/31 13:21:43;;;;;;;6.65;5.15;;;16.10;99.60;;;;;;4728111;30;20052;-86
2021/10/31 13:24:16;;;;;;;6.07;4.95;;;16.20;99.80;;;;;;4714537;30;20063;-87
2021/10/31 13:27:08;;;;;;;6.93;5.72;;;16.10;99.10;;;;;;4667301;30;20446;-87
2021/10/31 13:29:51;;;;;;;10.82;5.60;;;16.10;99.60;;;;;;4692127;30;20068;-88
2021/10/31 13:32:31;;;;;;;5.15;4.35;;;16.10;99.50;;;;;;4692168;30;20062;-85
2021/10/31 13:39:04;;;;;;;7.68;5.43;;;15.90;99.70;;;;;;4666717;30;20058;-86
2021/10/31 13:41:53;;;;;;;6.65;4.75;;;15.90;99.00;;;;;;4677772;30;20057;-84
2021/10/31 13:44:54;;;;;;;5.30;4.35;;;15.90;99.90;;;;;;4693132;30;20065;-86